Time;durP1;ratioP1;P1;durP2;ratioP2;P2;SDS_P1;SDS_P2;PMS_P1;PMS_P2;Temp;Humidity;BMP_temperature;BMP_pressure;BME280_temperature;BME280_humidity;BME280_pressure;Samples;Min_cycle;Max_cycle;Signal;HPM_P1;HPM_P2
2021/10/23 00:00:43;;;;;;;41.43;23.97;;;;;;;;;;4435210;32;20401;-53
2021/10/23 00:03:09;;;;;;;39.57;25.13;;;;;;;;;;4434107;32;20785;-53
2021/10/23 00:05:35;;;;;;;38.70;22.83;;;;;;;;;;4433592;32;20375;-55
2021/10/23 00:08:01;;;;;;;40.07;23.73;;;;;;;;;;4434565;32;20229;-53
2021/10/23 00:10:26;;;;;;;35.17;22.40;;;;;;;;;;4441670;32;20329;-55
2021/10/23 00:12:52;;;;;;;51.63;23.80;;;;;;;;;;4424832;32;20280;-53
2021/10/23 00:15:18;;;;;;;32.20;22.33;;;;;;;;;;4434873;32;20280;-55
2021/10/23 00:17:43;;;;;;;39.63;23.93;;;;;;;;;;4434615;32;20292;-53
2021/10/23 00:20:09;;;;;;;45.40;26.00;;;;;;;;;;4434567;32;20393;-53
2021/10/23 00:22:35;;;;;;;45.53;25.37;;;;;;;;;;4434663;32;20221;-53
2021/10/23 00:25:00;;;;;;;43.73;24.87;;;;;;;;;;4434753;32;20335;-54
2021/10/23 00:27:27;;;;;;;41.50;22.80;;;;;;;;;;4434522;32;20778;-53
2021/10/23 00:29:52;;;;;;;39.70;23.60;;;;;;;;;;4435068;32;20667;-53
2021/10/23 00:32:18;;;;;;;41.67;24.80;;;;;;;;;;4434806;32;20308;-53
2021/10/23 00:34:44;;;;;;;27.53;18.27;;;;;;;;;;4434399;32;20620;-54
2021/10/23 00:37:09;;;;;;;32.27;19.37;;;;;;;;;;4434237;32;20334;-54
2021/10/23 00:39:35;;;;;;;30.87;19.63;;;;;;;;;;4433211;32;20348;-53
2021/10/23 00:42:00;;;;;;;36.13;23.23;;;;;;;;;;4433709;32;20664;-55
2021/10/23 00:44:46;;;;;;;44.23;23.13;;;;;;;;;;4434567;32;20348;-53
2021/10/23 00:47:17;;;;;;;32.77;20.03;;;;;;;;;;4433894;32;20709;-54
2021/10/23 00:49:48;;;;;;;36.07;22.50;;;;;;;;;;4434104;32;20235;-54
2021/10/23 00:52:13;;;;;;;43.10;23.93;;;;;;;;;;4434224;32;20291;-53
2021/10/23 00:54:40;;;;;;;38.00;21.80;;;;;;;;;;4434356;32;20699;-54
2021/10/23 00:57:06;;;;;;;42.03;22.47;;;;;;;;;;4432863;32;20232;-53
2021/10/23 00:59:33;;;;;;;42.53;22.50;;;;;;;;;;4434004;32;20340;-54
2021/10/23 01:01:58;;;;;;;43.20;23.67;;;;;;;;;;4433132;32;20357;-54
2021/10/23 01:04:24;;;;;;;31.00;20.20;;;;;;;;;;4433738;32;20292;-53
2021/10/23 01:06:51;;;;;;;39.53;21.57;;;;;;;;;;4433860;32;20338;-54
2021/10/23 01:09:18;;;;;;;39.43;22.30;;;;;;;;;;4433812;32;20334;-52
2021/10/23 01:11:44;;;;;;;32.37;20.63;;;;;;;;;;4444601;32;20276;-53
2021/10/23 01:14:18;;;;;;;36.37;22.40;;;;;;;;;;4434287;32;20307;-55
2021/10/23 01:16:45;;;;;;;34.50;20.63;;;;;;;;;;4433706;32;20300;-53
2021/10/23 01:19:11;;;;;;;39.33;21.20;;;;;;;;;;4433371;32;20223;-53
2021/10/23 01:21:38;;;;;;;32.73;21.33;;;;;;;;;;4434092;32;20607;-54
2021/10/23 01:24:05;;;;;;;33.63;19.43;;;;;;;;;;4433599;32;20210;-54
2021/10/23 01:26:31;;;;;;;48.47;24.43;;;;;;;;;;4433690;32;20220;-53
2021/10/23 01:28:56;;;;;;;38.57;22.80;;;;;;;;;;4433717;32;20332;-54
2021/10/23 01:31:22;;;;;;;44.90;24.93;;;;;;;;;;4433864;32;20229;-54
2021/10/23 01:33:47;;;;;;;50.93;28.17;;;;;;;;;;4433987;32;20295;-53
2021/10/23 01:36:16;;;;;;;49.93;30.50;;;;;;;;;;4433395;32;20240;-53
2021/10/23 01:38:45;;;;;;;46.70;27.27;;;;;;;;;;4433991;32;20200;-53
2021/10/23 01:41:12;;;;;;;51.73;26.73;;;;;;;;;;4433352;32;20558;-54
2021/10/23 01:43:38;;;;;;;42.93;25.03;;;;;;;;;;4433495;32;20651;-55
2021/10/23 01:46:04;;;;;;;45.67;25.50;;;;;;;;;;4433307;32;20283;-54
2021/10/23 01:48:30;;;;;;;38.53;24.30;;;;;;;;;;4433276;32;20291;-54
2021/10/23 01:50:56;;;;;;;44.10;25.50;;;;;;;;;;4433557;32;20440;-53
2021/10/23 01:53:21;;;;;;;50.53;27.90;;;;;;;;;;4432704;32;20288;-55
2021/10/23 01:55:46;;;;;;;58.37;31.30;;;;;;;;;;4433317;32;20343;-53
2021/10/23 01:58:14;;;;;;;38.63;23.70;;;;;;;;;;4433219;32;20329;-55
2021/10/23 02:00:40;;;;;;;38.63;24.47;;;;;;;;;;4433324;32;20355;-53
2021/10/23 02:03:05;;;;;;;44.10;23.20;;;;;;;;;;4432104;32;20248;-54
2021/10/23 02:05:31;;;;;;;32.43;21.63;;;;;;;;;;4433194;32;20318;-53
2021/10/23 02:07:56;;;;;;;32.93;18.47;;;;;;;;;;4433207;32;20264;-53
2021/10/23 02:10:22;;;;;;;31.20;17.77;;;;;;;;;;4439656;32;20279;-55
2021/10/23 02:12:48;;;;;;;25.83;15.10;;;;;;;;;;4437273;32;20243;-54
2021/10/23 02:15:13;;;;;;;28.47;16.67;;;;;;;;;;4433053;32;20318;-55
2021/10/23 02:17:39;;;;;;;28.13;18.47;;;;;;;;;;4433478;32;20304;-54
2021/10/23 02:20:07;;;;;;;34.73;16.43;;;;;;;;;;4432923;32;20290;-53
2021/10/23 02:22:32;;;;;;;34.70;18.03;;;;;;;;;;4433274;32;20704;-53
2021/10/23 02:24:57;;;;;;;31.30;17.10;;;;;;;;;;4431686;32;20383;-53
2021/10/23 02:27:23;;;;;;;31.73;18.63;;;;;;;;;;4432915;32;20257;-53
2021/10/23 02:29:48;;;;;;;29.83;17.37;;;;;;;;;;4432929;32;20363;-53
2021/10/23 02:32:14;;;;;;;24.07;16.87;;;;;;;;;;4432682;32;20248;-54
2021/10/23 02:34:40;;;;;;;26.07;17.57;;;;;;;;;;4433035;32;20300;-56
2021/10/23 02:37:06;;;;;;;29.77;18.07;;;;;;;;;;4432912;32;20236;-54
2021/10/23 02:39:31;;;;;;;30.90;18.80;;;;;;;;;;4432839;32;20288;-54
2021/10/23 02:41:57;;;;;;;30.80;18.73;;;;;;;;;;4432883;32;20225;-54
2021/10/23 02:44:22;;;;;;;29.37;17.27;;;;;;;;;;4432910;32;20792;-54
2021/10/23 02:46:47;;;;;;;30.57;18.90;;;;;;;;;;4418925;32;20256;-53
2021/10/23 02:49:13;;;;;;;40.90;19.67;;;;;;;;;;4432580;32;20327;-53
2021/10/23 02:51:38;;;;;;;37.90;20.73;;;;;;;;;;4431885;32;20268;-53
2021/10/23 02:54:04;;;;;;;38.33;21.80;;;;;;;;;;4418665;32;20402;-53
2021/10/23 02:56:29;;;;;;;36.13;20.37;;;;;;;;;;4433107;32;20346;-54
2021/10/23 02:58:55;;;;;;;36.50;19.77;;;;;;;;;;4432633;32;20264;-55
2021/10/23 03:01:20;;;;;;;37.17;23.03;;;;;;;;;;4432096;32;20263;-54
2021/10/23 03:03:46;;;;;;;28.60;20.37;;;;;;;;;;4433044;32;20594;-52
2021/10/23 03:06:11;;;;;;;34.20;20.90;;;;;;;;;;4434416;32;20571;-54
2021/10/23 03:08:37;;;;;;;35.77;20.93;;;;;;;;;;4435516;32;20279;-53
2021/10/23 03:11:04;;;;;;;36.33;21.43;;;;;;;;;;4435241;32;20634;-53
2021/10/23 03:13:29;;;;;;;37.97;21.30;;;;;;;;;;4435804;32;20625;-54
2021/10/23 03:15:56;;;;;;;39.63;22.37;;;;;;;;;;4435799;32;20302;-53
2021/10/23 03:18:22;;;;;;;39.17;23.40;;;;;;;;;;4434101;32;20329;-53
2021/10/23 03:20:47;;;;;;;48.70;26.20;;;;;;;;;;4435723;32;20280;-54
2021/10/23 03:23:16;;;;;;;49.67;29.60;;;;;;;;;;4435349;32;20275;-53
2021/10/23 03:25:43;;;;;;;81.40;37.47;;;;;;;;;;4435765;32;20247;-53
2021/10/23 03:28:09;;;;;;;87.00;42.50;;;;;;;;;;4435278;32;20302;-54
2021/10/23 03:30:34;;;;;;;76.17;38.20;;;;;;;;;;4436046;32;20288;-55
2021/10/23 03:33:00;;;;;;;77.13;36.03;;;;;;;;;;4434987;32;20245;-54
2021/10/23 03:35:25;;;;;;;99.63;38.10;;;;;;;;;;4435075;32;20351;-55
2021/10/23 03:37:51;;;;;;;86.47;33.63;;;;;;;;;;4435227;32;20220;-54
2021/10/23 03:40:16;;;;;;;85.47;34.67;;;;;;;;;;4435235;32;20283;-52
2021/10/23 03:42:42;;;;;;;82.07;33.93;;;;;;;;;;4435059;32;20643;-53
2021/10/23 03:45:07;;;;;;;79.60;36.40;;;;;;;;;;4434967;32;20280;-52
2021/10/23 03:47:33;;;;;;;80.77;37.93;;;;;;;;;;4434999;32;20228;-52
2021/10/23 03:49:58;;;;;;;81.87;35.47;;;;;;;;;;4434814;32;20310;-53
2021/10/23 03:52:24;;;;;;;85.90;35.13;;;;;;;;;;4435090;32;20260;-52
2021/10/23 03:54:49;;;;;;;74.83;32.20;;;;;;;;;;4434772;32;20418;-52
2021/10/23 03:57:15;;;;;;;72.60;32.27;;;;;;;;;;4435147;32;20248;-54
2021/10/23 03:59:40;;;;;;;53.47;26.70;;;;;;;;;;4433745;32;20378;-53
2021/10/23 04:02:05;;;;;;;56.27;24.80;;;;;;;;;;4432896;32;20264;-53
2021/10/23 04:04:31;;;;;;;46.83;23.13;;;;;;;;;;4435110;32;20363;-52
2021/10/23 04:06:56;;;;;;;40.63;21.63;;;;;;;;;;4434944;32;20232;-54
2021/10/23 04:09:22;;;;;;;36.00;19.10;;;;;;;;;;4434789;32;20653;-53
2021/10/23 04:11:47;;;;;;;24.73;15.37;;;;;;;;;;4434612;32;20690;-52
2021/10/23 04:14:13;;;;;;;30.00;15.60;;;;;;;;;;4434840;32;20268;-54
2021/10/23 04:16:40;;;;;;;40.13;18.03;;;;;;;;;;4433829;32;20259;-53
2021/10/23 04:19:05;;;;;;;46.50;19.57;;;;;;;;;;4434270;32;20217;-54
2021/10/23 04:21:30;;;;;;;28.43;16.23;;;;;;;;;;4434358;32;20335;-54
2021/10/23 04:23:56;;;;;;;26.47;14.50;;;;;;;;;;4434290;32;20300;-54
2021/10/23 04:26:21;;;;;;;39.57;19.33;;;;;;;;;;4434387;32;20291;-53
2021/10/23 04:28:47;;;;;;;36.23;19.00;;;;;;;;;;4434283;32;20288;-53
2021/10/23 04:31:12;;;;;;;38.30;19.63;;;;;;;;;;4433980;32;20254;-53
2021/10/23 04:33:38;;;;;;;27.97;15.87;;;;;;;;;;4434671;32;20321;-55
2021/10/23 04:36:04;;;;;;;35.13;17.97;;;;;;;;;;4434167;32;20284;-53
2021/10/23 04:38:29;;;;;;;34.43;17.47;;;;;;;;;;4434322;32;20292;-54
2021/10/23 04:40:55;;;;;;;26.73;16.13;;;;;;;;;;4432997;32;20440;-53
2021/10/23 04:43:20;;;;;;;25.63;18.03;;;;;;;;;;4434215;32;20310;-52
2021/10/23 04:45:46;;;;;;;36.63;25.80;;;;;;;;;;4434544;32;20327;-54
2021/10/23 04:48:11;;;;;;;34.93;24.10;;;;;;;;;;4432459;32;20315;-55
2021/10/23 04:50:37;;;;;;;29.43;19.60;;;;;;;;;;4433886;32;20366;-53
2021/10/23 04:53:02;;;;;;;29.10;18.57;;;;;;;;;;4433965;32;20287;-53
2021/10/23 04:55:27;;;;;;;34.17;16.87;;;;;;;;;;4432741;32;20327;-53
2021/10/23 04:57:53;;;;;;;33.53;16.57;;;;;;;;;;4433732;32;20287;-53
2021/10/23 05:00:19;;;;;;;34.23;19.50;;;;;;;;;;4432406;32;20598;-54
2021/10/23 05:02:45;;;;;;;45.77;26.30;;;;;;;;;;4433566;32;20292;-53
2021/10/23 05:05:10;;;;;;;54.77;27.40;;;;;;;;;;4433784;32;20284;-53
2021/10/23 05:07:36;;;;;;;48.03;27.07;;;;;;;;;;4434073;32;20664;-53
2021/10/23 05:10:02;;;;;;;49.40;26.70;;;;;;;;;;4438156;32;20263;-53
2021/10/23 05:12:28;;;;;;;55.40;27.57;;;;;;;;;;4439921;32;20350;-53
2021/10/23 05:14:53;;;;;;;50.50;26.97;;;;;;;;;;4433953;32;20742;-55
2021/10/23 05:17:19;;;;;;;50.27;27.47;;;;;;;;;;4433492;32;20328;-53
2021/10/23 05:19:44;;;;;;;49.30;28.70;;;;;;;;;;4434000;32;20310;-53
2021/10/23 05:22:09;;;;;;;60.23;32.30;;;;;;;;;;4432349;32;20323;-55
2021/10/23 05:24:35;;;;;;;53.07;33.57;;;;;;;;;;4432392;32;20315;-53
2021/10/23 05:27:00;;;;;;;60.17;35.63;;;;;;;;;;4433468;32;20260;-54
2021/10/23 05:29:26;;;;;;;56.30;33.43;;;;;;;;;;4433664;32;20291;-54
2021/10/23 05:31:51;;;;;;;75.37;37.10;;;;;;;;;;4433557;32;20228;-53
2021/10/23 05:34:17;;;;;;;60.50;33.63;;;;;;;;;;4433283;32;20306;-54
2021/10/23 05:36:42;;;;;;;67.13;36.40;;;;;;;;;;4433428;32;20286;-54
2021/10/23 05:39:08;;;;;;;70.40;36.03;;;;;;;;;;4432493;32;20329;-53
2021/10/23 05:41:34;;;;;;;85.77;38.73;;;;;;;;;;4433016;32;20708;-54
2021/10/23 05:44:00;;;;;;;73.23;41.07;;;;;;;;;;4431680;32;20352;-54
2021/10/23 05:46:26;;;;;;;88.73;45.47;;;;;;;;;;4431891;32;20232;-53
2021/10/23 05:48:51;;;;;;;94.43;47.40;;;;;;;;;;4431322;32;20727;-55
2021/10/23 05:51:16;;;;;;;89.90;53.67;;;;;;;;;;4431312;32;20299;-53
2021/10/23 05:53:42;;;;;;;72.63;43.03;;;;;;;;;;4431659;32;20413;-54
2021/10/23 05:56:07;;;;;;;73.57;42.23;;;;;;;;;;4431581;32;20523;-54
2021/10/23 05:58:33;;;;;;;80.47;42.40;;;;;;;;;;4431262;32;20343;-53
2021/10/23 06:01:05;;;;;;;74.60;41.50;;;;;;;;;;4431286;32;20321;-53
2021/10/23 06:03:33;;;;;;;72.57;41.73;;;;;;;;;;4432645;32;20241;-55
2021/10/23 06:05:59;;;;;;;67.43;41.07;;;;;;;;;;4432481;32;20205;-54
2021/10/23 06:08:24;;;;;;;65.00;39.93;;;;;;;;;;4432819;32;20295;-55
2021/10/23 06:10:49;;;;;;;62.57;37.30;;;;;;;;;;4441740;32;20283;-54
2021/10/23 06:13:17;;;;;;;73.67;41.50;;;;;;;;;;4433895;32;20508;-54
2021/10/23 06:15:43;;;;;;;74.20;42.60;;;;;;;;;;4432737;32;20522;-53
2021/10/23 06:18:08;;;;;;;74.27;42.90;;;;;;;;;;4432296;32;20250;-53
2021/10/23 06:20:34;;;;;;;72.90;38.40;;;;;;;;;;4432769;32;20748;-55
2021/10/23 06:22:59;;;;;;;60.53;39.53;;;;;;;;;;4431240;32;20744;-53
2021/10/23 06:25:25;;;;;;;49.60;35.13;;;;;;;;;;4432668;32;20300;-61
2021/10/23 06:27:51;;;;;;;56.03;36.53;;;;;;;;;;4433256;32;20290;-53
2021/10/23 06:30:16;;;;;;;63.67;38.47;;;;;;;;;;4432637;32;20283;-54
2021/10/23 06:32:50;;;;;;;63.47;40.10;;;;;;;;;;4431028;32;20320;-53
2021/10/23 06:35:16;;;;;;;60.50;39.27;;;;;;;;;;4432985;32;20204;-54
2021/10/23 06:37:41;;;;;;;59.73;38.90;;;;;;;;;;4432727;32;20244;-53
2021/10/23 06:40:08;;;;;;;62.63;39.00;;;;;;;;;;4434609;32;20405;-53
2021/10/23 06:42:33;;;;;;;51.03;33.53;;;;;;;;;;4436038;32;20243;-53
2021/10/23 06:44:59;;;;;;;65.07;39.40;;;;;;;;;;4436276;32;20292;-55
2021/10/23 06:47:24;;;;;;;81.47;44.87;;;;;;;;;;4435689;32;20268;-53
2021/10/23 06:49:51;;;;;;;75.87;39.70;;;;;;;;;;4435729;32;20315;-53
2021/10/23 06:52:17;;;;;;;73.87;43.47;;;;;;;;;;4434608;32;20248;-54
2021/10/23 06:54:42;;;;;;;66.10;38.47;;;;;;;;;;4435362;32;20306;-55
2021/10/23 06:57:08;;;;;;;54.23;30.30;;;;;;;;;;4435333;32;20255;-54
2021/10/23 06:59:33;;;;;;;58.10;34.90;;;;;;;;;;4435832;32;20717;-54
2021/10/23 07:01:58;;;;;;;51.67;29.73;;;;;;;;;;4434613;32;20434;-53
2021/10/23 07:04:24;;;;;;;58.37;37.40;;;;;;;;;;4435507;32;20353;-54
2021/10/23 07:06:49;;;;;;;55.70;36.87;;;;;;;;;;4435555;32;20376;-56
2021/10/23 07:09:16;;;;;;;49.73;30.40;;;;;;;;;;4435233;32;20817;-54
2021/10/23 07:11:42;;;;;;;40.77;27.00;;;;;;;;;;4435016;32;20228;-53
2021/10/23 07:14:07;;;;;;;49.70;29.73;;;;;;;;;;4435084;32;20766;-54
2021/10/23 07:16:33;;;;;;;50.73;31.30;;;;;;;;;;4433739;32;20260;-54
2021/10/23 07:18:58;;;;;;;50.83;29.27;;;;;;;;;;4435199;32;20323;-54
2021/10/23 07:21:24;;;;;;;45.27;29.13;;;;;;;;;;4434908;32;20264;-53
2021/10/23 07:23:50;;;;;;;48.47;29.10;;;;;;;;;;4435566;32;20311;-53
2021/10/23 07:26:15;;;;;;;49.47;31.67;;;;;;;;;;4435125;32;20853;-54
2021/10/23 07:28:41;;;;;;;42.03;25.37;;;;;;;;;;4435425;32;20282;-53
2021/10/23 07:31:07;;;;;;;45.97;25.50;;;;;;;;;;4435385;32;20660;-53
2021/10/23 07:33:32;;;;;;;38.47;22.90;;;;;;;;;;4435277;32;20287;-53
2021/10/23 07:35:58;;;;;;;29.83;22.23;;;;;;;;;;4435140;32;20287;-54
2021/10/23 07:38:23;;;;;;;23.17;13.90;;;;;;;;;;4435541;32;20268;-53
2021/10/23 07:40:48;;;;;;;24.07;17.57;;;;;;;;;;4435003;32;20337;-53
2021/10/23 07:43:14;;;;;;;24.63;17.93;;;;;;;;;;4435304;32;20363;-54
2021/10/23 07:45:40;;;;;;;31.67;20.27;;;;;;;;;;4435123;32;20302;-54
2021/10/23 07:48:06;;;;;;;29.67;20.57;;;;;;;;;;4434623;32;20225;-53
2021/10/23 07:50:32;;;;;;;29.27;20.80;;;;;;;;;;4434252;32;20378;-54
2021/10/23 07:53:01;;;;;;;28.47;19.10;;;;;;;;;;4434724;32;20236;-54
2021/10/23 07:55:27;;;;;;;27.70;17.60;;;;;;;;;;4434843;32;20254;-53
2021/10/23 07:57:52;;;;;;;25.80;18.60;;;;;;;;;;4435068;32;20634;-54
2021/10/23 08:00:18;;;;;;;29.07;17.07;;;;;;;;;;4434763;32;20327;-54
2021/10/23 08:02:51;;;;;;;31.80;18.97;;;;;;;;;;4434506;32;20220;-54
2021/10/23 08:05:17;;;;;;;32.90;20.37;;;;;;;;;;4434773;32;20239;-54
2021/10/23 08:07:44;;;;;;;26.37;18.13;;;;;;;;;;4434724;32;20336;-54
2021/10/23 08:10:10;;;;;;;27.30;19.17;;;;;;;;;;4434281;32;20686;-53
2021/10/23 08:12:35;;;;;;;34.13;21.63;;;;;;;;;;4434457;32;20327;-52
2021/10/23 08:15:01;;;;;;;31.37;20.27;;;;;;;;;;4434510;32;20284;-54
2021/10/23 08:17:26;;;;;;;35.20;20.30;;;;;;;;;;4433577;32;20274;-53
2021/10/23 08:19:54;;;;;;;21.67;15.90;;;;;;;;;;4434962;32;20585;-54
2021/10/23 08:22:20;;;;;;;18.93;14.23;;;;;;;;;;4434653;32;20427;-54
2021/10/23 08:24:47;;;;;;;20.73;13.90;;;;;;;;;;4435065;32;20351;-53
2021/10/23 08:27:12;;;;;;;20.83;14.60;;;;;;;;;;4434734;32;20561;-54
2021/10/23 08:29:38;;;;;;;24.27;15.17;;;;;;;;;;4434777;32;20327;-54
2021/10/23 08:32:03;;;;;;;19.30;14.10;;;;;;;;;;4434430;32;20255;-54
2021/10/23 08:34:29;;;;;;;17.20;13.60;;;;;;;;;;4433545;32;20869;-54
2021/10/23 08:36:54;;;;;;;26.13;16.13;;;;;;;;;;4433047;32;20303;-53
2021/10/23 08:39:20;;;;;;;22.80;15.10;;;;;;;;;;4433199;32;20777;-53
2021/10/23 08:41:45;;;;;;;21.33;14.80;;;;;;;;;;4434747;32;20292;-54
2021/10/23 08:44:13;;;;;;;22.83;15.63;;;;;;;;;;4434325;32;20644;-55
2021/10/23 08:46:41;;;;;;;24.60;17.13;;;;;;;;;;4434134;32;20650;-54
2021/10/23 08:49:07;;;;;;;25.97;16.17;;;;;;;;;;4434271;32;20283;-54
2021/10/23 08:51:33;;;;;;;21.90;16.00;;;;;;;;;;4434406;32;20255;-54
2021/10/23 08:54:00;;;;;;;22.90;15.43;;;;;;;;;;4434240;32;20283;-56
2021/10/23 08:56:26;;;;;;;25.37;17.30;;;;;;;;;;4434013;32;20252;-54
2021/10/23 08:58:51;;;;;;;35.73;19.97;;;;;;;;;;4432944;32;20367;-54
2021/10/23 09:01:17;;;;;;;22.90;16.27;;;;;;;;;;4432158;32;20351;-54
2021/10/23 09:03:44;;;;;;;30.07;18.23;;;;;;;;;;4434036;32;20224;-54
2021/10/23 09:06:28;;;;;;;34.67;20.90;;;;;;;;;;4433789;32;20383;-54
2021/10/23 09:09:04;;;;;;;31.80;19.30;;;;;;;;;;4433963;32;20209;-54
2021/10/23 09:11:31;;;;;;;27.63;18.73;;;;;;;;;;4433968;32;20331;-53
2021/10/23 09:14:20;;;;;;;27.97;17.13;;;;;;;;;;4432918;32;20246;-54
2021/10/23 09:16:47;;;;;;;31.97;18.27;;;;;;;;;;4433852;32;20221;-53
2021/10/23 09:19:15;;;;;;;30.13;19.33;;;;;;;;;;4433758;32;20245;-55
2021/10/23 09:21:40;;;;;;;29.10;19.50;;;;;;;;;;4433923;32;20237;-53
2021/10/23 09:24:22;;;;;;;31.17;20.50;;;;;;;;;;4433719;32;20573;-54
2021/10/23 09:26:50;;;;;;;26.30;19.03;;;;;;;;;;4433840;32;20616;-54
2021/10/23 09:29:19;;;;;;;26.90;17.60;;;;;;;;;;4433344;32;20556;-54
2021/10/23 09:31:46;;;;;;;31.20;21.30;;;;;;;;;;4431926;32;20276;-53
2021/10/23 09:34:20;;;;;;;27.20;19.90;;;;;;;;;;4432624;32;20197;-54
2021/10/23 09:36:48;;;;;;;30.77;21.67;;;;;;;;;;4433702;32;20233;-54
2021/10/23 09:39:31;;;;;;;37.17;22.67;;;;;;;;;;4432157;32;20240;-54
2021/10/23 09:42:11;;;;;;;37.27;22.90;;;;;;;;;;4433840;32;20347;-53
2021/10/23 09:45:03;;;;;;;32.00;21.73;;;;;;;;;;4433587;32;20212;-53
2021/10/23 09:47:38;;;;;;;31.47;22.70;;;;;;;;;;4433578;32;21028;-54
2021/10/23 09:50:14;;;;;;;35.03;21.23;;;;;;;;;;4433728;32;20298;-54
2021/10/23 09:53:04;;;;;;;34.13;22.47;;;;;;;;;;4433699;32;20335;-54
2021/10/23 09:55:49;;;;;;;26.87;20.30;;;;;;;;;;4432402;32;20315;-53
2021/10/23 09:58:21;;;;;;;32.67;20.53;;;;;;;;;;4433847;32;20225;-54
2021/10/23 10:00:49;;;;;;;42.97;25.57;;;;;;;;;;4433625;32;20251;-55
2021/10/23 10:03:19;;;;;;;30.30;21.00;;;;;;;;;;4432970;32;20217;-54
2021/10/23 10:05:46;;;;;;;32.87;22.17;;;;;;;;;;4433784;32;20260;-55
2021/10/23 10:08:13;;;;;;;30.93;21.50;;;;;;;;;;4433657;32;20261;-54
2021/10/23 10:10:42;;;;;;;26.63;19.43;;;;;;;;;;4441828;32;20208;-55
2021/10/23 10:13:10;;;;;;;27.47;19.53;;;;;;;;;;4433408;32;20225;-53
2021/10/23 10:15:38;;;;;;;33.00;19.87;;;;;;;;;;4432780;32;20542;-54
2021/10/23 10:18:05;;;;;;;32.27;20.03;;;;;;;;;;4432664;32;20518;-54
2021/10/23 10:20:33;;;;;;;25.73;20.57;;;;;;;;;;4433036;32;20259;-53
2021/10/23 10:22:59;;;;;;;36.27;20.13;;;;;;;;;;4433212;32;20670;-54
2021/10/23 10:25:25;;;;;;;28.00;19.23;;;;;;;;;;4432980;32;20291;-54
2021/10/23 10:27:52;;;;;;;28.17;20.20;;;;;;;;;;4432771;32;20272;-54
2021/10/23 10:30:29;;;;;;;26.07;17.50;;;;;;;;;;4432769;32;20319;-54
2021/10/23 10:33:20;;;;;;;27.80;18.37;;;;;;;;;;4432975;32;20236;-54
2021/10/23 10:36:14;;;;;;;22.63;16.43;;;;;;;;;;4433442;32;20181;-54
2021/10/23 10:38:44;;;;;;;28.93;19.77;;;;;;;;;;4433102;32;20335;-54
2021/10/23 10:44:13;;;;;;;25.70;18.73;;;;;;;;;;4432870;32;20193;-53
2021/10/23 10:47:00;;;;;;;27.63;17.77;;;;;;;;;;4432728;32;20252;-53
2021/10/23 10:49:50;;;;;;;22.77;15.77;;;;;;;;;;4433017;32;20209;-55
2021/10/23 10:52:41;;;;;;;19.53;16.97;;;;;;;;;;4432447;32;20252;-54
2021/10/23 10:55:20;;;;;;;27.07;17.43;;;;;;;;;;4433220;32;20209;-54
2021/10/23 10:58:02;;;;;;;24.30;17.63;;;;;;;;;;4431403;32;20646;-54
2021/10/23 11:00:46;;;;;;;32.43;21.67;;;;;;;;;;4431404;32;20715;-54
2021/10/23 11:03:32;;;;;;;25.10;15.83;;;;;;;;;;4432118;32;20270;-53
2021/10/23 11:06:33;;;;;;;19.13;14.47;;;;;;;;;;4433019;32;20201;-54
2021/10/23 11:11:51;;;;;;;28.03;19.63;;;;;;;;;;4432486;32;20228;-53
2021/10/23 11:14:28;;;;;;;26.00;17.40;;;;;;;;;;4432700;32;20215;-54
2021/10/23 11:19:38;;;;;;;91.90;47.83;;;;;;;;;;4432717;32;20735;-54
2021/10/23 11:22:27;;;;;;;55.50;29.53;;;;;;;;;;4433191;32;20260;-53
2021/10/23 11:25:10;;;;;;;47.10;28.47;;;;;;;;;;4432623;32;20535;-54
2021/10/23 11:27:40;;;;;;;44.87;27.13;;;;;;;;;;4435888;32;20220;-54
2021/10/23 11:30:09;;;;;;;42.50;27.73;;;;;;;;;;4435405;32;20238;-53
2021/10/23 11:32:51;;;;;;;42.90;23.90;;;;;;;;;;4435657;32;20653;-53
2021/10/23 11:35:16;;;;;;;31.37;20.80;;;;;;;;;;4423604;32;20615;-54
2021/10/23 11:37:42;;;;;;;35.63;23.77;;;;;;;;;;4435602;32;20338;-53
2021/10/23 11:40:11;;;;;;;33.50;21.67;;;;;;;;;;4435841;32;20283;-54
2021/10/23 11:42:44;;;;;;;30.57;20.70;;;;;;;;;;4434713;32;20233;-53
2021/10/23 11:45:24;;;;;;;29.83;19.80;;;;;;;;;;4433981;32;20295;-54
2021/10/23 11:47:51;;;;;;;33.17;20.67;;;;;;;;;;4435361;32;20260;-54
2021/10/23 11:50:23;;;;;;;40.70;22.57;;;;;;;;;;4435487;32;20279;-55
2021/10/23 11:53:11;;;;;;;41.87;25.70;;;;;;;;;;4435589;32;20248;-54
2021/10/23 11:55:42;;;;;;;42.63;25.57;;;;;;;;;;4435614;32;20617;-55
2021/10/23 11:58:10;;;;;;;43.27;26.57;;;;;;;;;;4435268;32;20736;-54
2021/10/23 12:00:38;;;;;;;40.23;24.40;;;;;;;;;;4434660;32;20330;-55
2021/10/23 12:03:06;;;;;;;37.00;24.80;;;;;;;;;;4433661;32;20706;-53
2021/10/23 12:05:39;;;;;;;39.03;25.90;;;;;;;;;;4432187;32;20232;-54
2021/10/23 12:08:30;;;;;;;34.53;23.90;;;;;;;;;;4434441;32;20286;-54
2021/10/23 12:11:02;;;;;;;34.07;23.10;;;;;;;;;;4435164;32;20643;-54
2021/10/23 12:13:49;;;;;;;42.23;21.87;;;;;;;;;;4435065;32;20507;-55
2021/10/23 12:16:16;;;;;;;35.40;21.77;;;;;;;;;;4434810;32;20263;-53
2021/10/23 12:18:44;;;;;;;34.87;22.73;;;;;;;;;;4435373;32;20243;-54
2021/10/23 12:21:19;;;;;;;26.03;18.50;;;;;;;;;;4433362;32;20858;-54
2021/10/23 12:23:50;;;;;;;24.07;16.40;;;;;;;;;;4435226;32;20315;-53
2021/10/23 12:26:17;;;;;;;29.07;18.93;;;;;;;;;;4434790;32;20595;-53
2021/10/23 12:28:56;;;;;;;34.83;22.20;;;;;;;;;;4434672;32;20268;-54
2021/10/23 12:31:21;;;;;;;34.27;21.63;;;;;;;;;;4434651;32;20625;-54
2021/10/23 12:34:05;;;;;;;27.60;20.33;;;;;;;;;;4434977;32;20346;-54
2021/10/23 12:36:31;;;;;;;25.30;16.97;;;;;;;;;;4433174;32;20324;-55
2021/10/23 12:39:23;;;;;;;35.20;22.40;;;;;;;;;;4434453;32;20233;-54
2021/10/23 12:41:49;;;;;;;31.13;21.67;;;;;;;;;;4434793;32;20593;-54
2021/10/23 12:44:18;;;;;;;31.77;22.13;;;;;;;;;;4434326;32;20348;-55
2021/10/23 12:46:44;;;;;;;35.87;22.50;;;;;;;;;;4435060;32;20255;-54
2021/10/23 12:49:10;;;;;;;35.20;19.73;;;;;;;;;;4434310;32;20315;-53
2021/10/23 12:51:36;;;;;;;32.20;20.07;;;;;;;;;;4434367;32;20224;-54
2021/10/23 12:54:01;;;;;;;31.00;18.17;;;;;;;;;;4433975;32;20237;-53
2021/10/23 12:56:27;;;;;;;27.50;20.50;;;;;;;;;;4433000;32;20286;-54
2021/10/23 12:58:52;;;;;;;19.27;13.43;;;;;;;;;;4434271;32;20279;-55
2021/10/23 13:01:17;;;;;;;26.50;15.97;;;;;;;;;;4433578;32;20509;-54
2021/10/23 13:03:43;;;;;;;26.47;16.03;;;;;;;;;;4434593;32;20193;-53
2021/10/23 13:06:08;;;;;;;25.70;15.97;;;;;;;;;;4432817;32;20244;-54
2021/10/23 13:08:34;;;;;;;25.00;17.43;;;;;;;;;;4433047;32;20355;-54
2021/10/23 13:10:59;;;;;;;18.83;13.33;;;;;;;;;;4433908;32;20366;-53
2021/10/23 13:13:26;;;;;;;22.10;13.83;;;;;;;;;;4434168;32;20719;-55
2021/10/23 13:15:51;;;;;;;14.37;11.13;;;;;;;;;;4433100;32;20276;-54
2021/10/23 13:18:16;;;;;;;16.00;8.37;;;;;;;;;;4432328;32;20319;-53
2021/10/23 13:20:42;;;;;;;14.73;9.10;;;;;;;;;;4434239;32;20304;-53
2021/10/23 13:23:07;;;;;;;13.87;9.97;;;;;;;;;;4433758;32;20327;-54
2021/10/23 13:25:33;;;;;;;17.93;10.90;;;;;;;;;;4433605;32;20296;-54
2021/10/23 13:27:58;;;;;;;19.43;11.87;;;;;;;;;;4433433;32;20349;-53
2021/10/23 13:30:24;;;;;;;22.20;14.93;;;;;;;;;;4432848;32;20205;-53
2021/10/23 13:32:49;;;;;;;25.60;17.60;;;;;;;;;;4433916;32;20295;-54
2021/10/23 13:35:14;;;;;;;29.80;21.70;;;;;;;;;;4433530;32;20673;-54
2021/10/23 13:37:40;;;;;;;30.47;18.60;;;;;;;;;;4433707;32;20225;-54
2021/10/23 13:40:08;;;;;;;33.37;20.47;;;;;;;;;;4433730;32;20677;-55
2021/10/23 13:42:34;;;;;;;33.20;23.40;;;;;;;;;;4434071;32;20252;-53
2021/10/23 13:44:59;;;;;;;35.40;24.67;;;;;;;;;;4433424;32;20338;-54
2021/10/23 13:47:25;;;;;;;37.40;27.17;;;;;;;;;;4433468;32;20256;-54
2021/10/23 13:49:50;;;;;;;47.40;29.63;;;;;;;;;;4433709;32;20321;-55
2021/10/23 13:52:15;;;;;;;43.10;30.13;;;;;;;;;;4433534;32;20257;-53
2021/10/23 13:54:41;;;;;;;41.83;27.77;;;;;;;;;;4432730;32;20236;-53
2021/10/23 13:57:06;;;;;;;44.87;30.17;;;;;;;;;;4431200;32;20248;-53
2021/10/23 13:59:32;;;;;;;41.23;28.43;;;;;;;;;;4433109;32;20565;-54
2021/10/23 14:01:58;;;;;;;38.33;26.53;;;;;;;;;;4432123;32;20376;-54
2021/10/23 14:04:24;;;;;;;33.03;24.60;;;;;;;;;;4433317;32;20237;-53
2021/10/23 14:06:49;;;;;;;36.17;24.93;;;;;;;;;;4433340;32;20327;-54
2021/10/23 14:09:15;;;;;;;45.47;25.60;;;;;;;;;;4433193;32;20688;-54
2021/10/23 14:11:41;;;;;;;41.03;29.13;;;;;;;;;;4434512;32;20263;-53
2021/10/23 14:14:06;;;;;;;49.13;32.10;;;;;;;;;;4432852;32;20353;-55
2021/10/23 14:16:31;;;;;;;65.60;39.30;;;;;;;;;;4433117;32;20216;-54
2021/10/23 14:18:57;;;;;;;58.47;30.53;;;;;;;;;;4433015;32;20271;-54
2021/10/23 14:21:23;;;;;;;57.43;32.57;;;;;;;;;;4432640;32;20846;-54
2021/10/23 14:23:48;;;;;;;67.03;36.30;;;;;;;;;;4432434;32;20943;-54
2021/10/23 14:26:17;;;;;;;69.00;40.53;;;;;;;;;;4432589;32;20259;-54
2021/10/23 14:28:44;;;;;;;63.83;36.10;;;;;;;;;;4433222;32;20234;-54